sensor_id;sensor_type;location;lat;lon;timestamp;pressure;altitude;pressure_sealevel;temperature;humidity
35758;BME280;21879;50.110;18.900;2023-02-17T00:04:49;99260.23;;;3.44;64.42
35758;BME280;21879;50.110;18.900;2023-02-17T00:15:15;99260.83;;;3.41;65.00
35758;BME280;21879;50.110;18.900;2023-02-17T00:25:40;99260.61;;;3.33;65.47
35758;BME280;21879;50.110;18.900;2023-02-17T00:36:09;99262.17;;;3.22;65.92
35758;BME280;21879;50.110;18.900;2023-02-17T00:46:33;99256.06;;;3.18;66.22
35758;BME280;21879;50.110;18.900;2023-02-17T00:56:58;99244.23;;;3.20;66.40
35758;BME280;21879;50.110;18.900;2023-02-17T01:07:22;99236.88;;;3.27;66.41
35758;BME280;21879;50.110;18.900;2023-02-17T01:17:46;99218.08;;;3.24;66.47
35758;BME280;21879;50.110;18.900;2023-02-17T01:28:14;99220.94;;;3.35;66.84
35758;BME280;21879;50.110;18.900;2023-02-17T01:38:39;99208.90;;;3.53;66.76
35758;BME280;21879;50.110;18.900;2023-02-17T01:49:13;99205.96;;;3.66;66.57
35758;BME280;21879;50.110;18.900;2023-02-17T01:59:38;99193.80;;;3.68;66.55
35758;BME280;21879;50.110;18.900;2023-02-17T02:10:05;99195.38;;;3.76;66.41
35758;BME280;21879;50.110;18.900;2023-02-17T02:31:45;99180.10;;;3.77;66.02
35758;BME280;21879;50.110;18.900;2023-02-17T02:42:17;99174.14;;;3.86;66.15
35758;BME280;21879;50.110;18.900;2023-02-17T02:52:50;99155.44;;;3.88;65.90
35758;BME280;21879;50.110;18.900;2023-02-17T03:03:21;99147.90;;;3.82;65.85
35758;BME280;21879;50.110;18.900;2023-02-17T03:13:48;99137.06;;;3.82;66.07
35758;BME280;21879;50.110;18.900;2023-02-17T03:24:13;99137.29;;;3.91;66.24
35758;BME280;21879;50.110;18.900;2023-02-17T03:34:38;99123.11;;;4.10;66.41
35758;BME280;21879;50.110;18.900;2023-02-17T03:45:03;99128.05;;;4.09;66.20
35758;BME280;21879;50.110;18.900;2023-02-17T03:55:28;99126.47;;;4.15;66.31
35758;BME280;21879;50.110;18.900;2023-02-17T04:05:52;99124.03;;;4.21;66.20
35758;BME280;21879;50.110;18.900;2023-02-17T04:16:17;99117.25;;;4.34;65.82
35758;BME280;21879;50.110;18.900;2023-02-17T04:26:41;99106.63;;;4.28;65.78
35758;BME280;21879;50.110;18.900;2023-02-17T04:37:05;99106.14;;;4.21;65.76
35758;BME280;21879;50.110;18.900;2023-02-17T04:47:30;99107.92;;;4.17;66.06
35758;BME280;21879;50.110;18.900;2023-02-17T04:57:54;99104.51;;;4.25;66.33
35758;BME280;21879;50.110;18.900;2023-02-17T05:08:19;99088.18;;;4.19;66.49
35758;BME280;21879;50.110;18.900;2023-02-17T05:18:45;99079.60;;;4.12;66.70
35758;BME280;21879;50.110;18.900;2023-02-17T05:29:10;99067.77;;;3.99;66.84
35758;BME280;21879;50.110;18.900;2023-02-17T05:39:35;99068.89;;;3.88;67.36
35758;BME280;21879;50.110;18.900;2023-02-17T05:50:00;99058.27;;;3.89;67.63
35758;BME280;21879;50.110;18.900;2023-02-17T06:00:25;99056.67;;;4.03;67.97
35758;BME280;21879;50.110;18.900;2023-02-17T06:10:51;99061.94;;;4.31;67.93
35758;BME280;21879;50.110;18.900;2023-02-17T06:21:15;99048.46;;;4.72;67.67
35758;BME280;21879;50.110;18.900;2023-02-17T06:31:40;99033.61;;;4.97;67.12
35758;BME280;21879;50.110;18.900;2023-02-17T06:42:05;99030.13;;;4.94;66.60
35758;BME280;21879;50.110;18.900;2023-02-17T06:52:30;99025.38;;;4.80;66.56
35758;BME280;21879;50.110;18.900;2023-02-17T07:02:55;99021.95;;;4.72;66.74
35758;BME280;21879;50.110;18.900;2023-02-17T07:13:20;99023.64;;;4.79;66.95
35758;BME280;21879;50.110;18.900;2023-02-17T07:23:44;99016.92;;;4.89;66.98
35758;BME280;21879;50.110;18.900;2023-02-17T07:34:09;99027.40;;;5.07;67.02
35758;BME280;21879;50.110;18.900;2023-02-17T07:44:34;99020.34;;;5.16;66.93
35758;BME280;21879;50.110;18.900;2023-02-17T07:54:59;99024.59;;;5.34;67.01
35758;BME280;21879;50.110;18.900;2023-02-17T08:05:24;99002.45;;;5.51;66.63
35758;BME280;21879;50.110;18.900;2023-02-17T08:15:49;98991.43;;;5.64;66.50
35758;BME280;21879;50.110;18.900;2023-02-17T08:26:14;98985.93;;;5.78;66.55
35758;BME280;21879;50.110;18.900;2023-02-17T08:36:39;98987.06;;;5.84;66.63
35758;BME280;21879;50.110;18.900;2023-02-17T08:47:05;98994.77;;;5.80;66.85
35758;BME280;21879;50.110;18.900;2023-02-17T08:57:29;98987.56;;;5.83;67.16
35758;BME280;21879;50.110;18.900;2023-02-17T09:07:53;98981.84;;;5.92;67.42
35758;BME280;21879;50.110;18.900;2023-02-17T09:18:18;98981.80;;;6.01;67.43
35758;BME280;21879;50.110;18.900;2023-02-17T09:28:43;98984.92;;;6.02;67.54
35758;BME280;21879;50.110;18.900;2023-02-17T09:39:08;98973.61;;;6.09;67.77
35758;BME280;21879;50.110;18.900;2023-02-17T09:49:38;98957.88;;;6.21;67.90
35758;BME280;21879;50.110;18.900;2023-02-17T10:00:09;98955.66;;;6.22;68.36
35758;BME280;21879;50.110;18.900;2023-02-17T10:10:40;98961.80;;;6.31;69.22
35758;BME280;21879;50.110;18.900;2023-02-17T10:21:10;98946.19;;;6.41;69.51
35758;BME280;21879;50.110;18.900;2023-02-17T10:31:43;98940.14;;;6.56;69.72
35758;BME280;21879;50.110;18.900;2023-02-17T10:42:15;98938.23;;;6.71;69.32
35758;BME280;21879;50.110;18.900;2023-02-17T10:52:41;98912.29;;;6.70;68.91
35758;BME280;21879;50.110;18.900;2023-02-17T11:03:05;98902.91;;;6.66;68.82
35758;BME280;21879;50.110;18.900;2023-02-17T11:13:35;98889.66;;;6.72;68.81
35758;BME280;21879;50.110;18.900;2023-02-17T11:24:03;98865.52;;;6.77;68.64
35758;BME280;21879;50.110;18.900;2023-02-17T11:34:29;98841.51;;;6.79;68.82
35758;BME280;21879;50.110;18.900;2023-02-17T11:44:57;98830.35;;;6.88;68.87
35758;BME280;21879;50.110;18.900;2023-02-17T11:55:27;98807.74;;;6.95;68.83
35758;BME280;21879;50.110;18.900;2023-02-17T12:06:03;98799.48;;;6.99;68.93
35758;BME280;21879;50.110;18.900;2023-02-17T12:16:41;98792.77;;;7.05;68.84
35758;BME280;21879;50.110;18.900;2023-02-17T12:27:19;98781.38;;;7.07;68.75
35758;BME280;21879;50.110;18.900;2023-02-17T12:37:50;98775.70;;;7.15;69.10
35758;BME280;21879;50.110;18.900;2023-02-17T12:48:23;98760.21;;;7.30;68.83
35758;BME280;21879;50.110;18.900;2023-02-17T12:58:50;98748.83;;;7.33;68.73
35758;BME280;21879;50.110;18.900;2023-02-17T13:09:23;98731.86;;;7.29;68.63
35758;BME280;21879;50.110;18.900;2023-02-17T13:20:02;98706.44;;;7.32;68.74
35758;BME280;21879;50.110;18.900;2023-02-17T13:30:36;98684.66;;;7.34;68.83
35758;BME280;21879;50.110;18.900;2023-02-17T13:41:05;98673.95;;;7.46;69.10
35758;BME280;21879;50.110;18.900;2023-02-17T13:51:31;98653.40;;;7.56;69.30
35758;BME280;21879;50.110;18.900;2023-02-17T14:01:56;98635.22;;;7.60;69.40
35758;BME280;21879;50.110;18.900;2023-02-17T14:12:22;98630.91;;;7.63;69.14
35758;BME280;21879;50.110;18.900;2023-02-17T14:22:46;98621.40;;;7.66;69.26
35758;BME280;21879;50.110;18.900;2023-02-17T14:33:27;98607.04;;;7.64;69.26
35758;BME280;21879;50.110;18.900;2023-02-17T14:43:52;98592.66;;;7.58;69.95
35758;BME280;21879;50.110;18.900;2023-02-17T14:54:17;98566.52;;;7.52;70.52
35758;BME280;21879;50.110;18.900;2023-02-17T15:04:41;98558.40;;;7.51;70.97
35758;BME280;21879;50.110;18.900;2023-02-17T15:15:09;98545.77;;;7.53;71.13
35758;BME280;21879;50.110;18.900;2023-02-17T15:25:37;98528.13;;;7.61;71.31
35758;BME280;21879;50.110;18.900;2023-02-17T15:36:01;98510.99;;;7.67;71.36
35758;BME280;21879;50.110;18.900;2023-02-17T15:46:29;98489.70;;;7.73;71.15
35758;BME280;21879;50.110;18.900;2023-02-17T15:56:53;98467.02;;;7.80;71.15
35758;BME280;21879;50.110;18.900;2023-02-17T16:07:18;98461.81;;;7.86;71.20
35758;BME280;21879;50.110;18.900;2023-02-17T16:17:42;98461.45;;;7.89;71.43
35758;BME280;21879;50.110;18.900;2023-02-17T16:28:13;98458.52;;;7.87;71.76
35758;BME280;21879;50.110;18.900;2023-02-17T16:38:38;98436.02;;;7.86;71.95
35758;BME280;21879;50.110;18.900;2023-02-17T16:49:16;98410.05;;;7.85;72.46
35758;BME280;21879;50.110;18.900;2023-02-17T16:59:42;98392.38;;;7.88;72.54
35758;BME280;21879;50.110;18.900;2023-02-17T17:10:10;98387.69;;;7.94;72.68
35758;BME280;21879;50.110;18.900;2023-02-17T17:20:40;98380.72;;;8.04;72.72
35758;BME280;21879;50.110;18.900;2023-02-17T17:31:05;98359.71;;;8.16;72.63
35758;BME280;21879;50.110;18.900;2023-02-17T17:41:32;98349.23;;;8.32;72.41
35758;BME280;21879;50.110;18.900;2023-02-17T17:51:57;98362.68;;;8.45;72.26
35758;BME280;21879;50.110;18.900;2023-02-17T18:02:21;98371.43;;;8.59;72.08
35758;BME280;21879;50.110;18.900;2023-02-17T18:12:46;98359.06;;;8.67;72.26
35758;BME280;21879;50.110;18.900;2023-02-17T18:23:11;98361.46;;;8.71;72.54
35758;BME280;21879;50.110;18.900;2023-02-17T18:33:36;98365.11;;;8.70;72.76
35758;BME280;21879;50.110;18.900;2023-02-17T18:44:04;98359.60;;;8.65;72.94
35758;BME280;21879;50.110;18.900;2023-02-17T18:54:28;98352.32;;;8.65;73.02
35758;BME280;21879;50.110;18.900;2023-02-17T19:05:01;98363.34;;;8.76;72.89
35758;BME280;21879;50.110;18.900;2023-02-17T19:15:25;98363.06;;;8.89;72.63
35758;BME280;21879;50.110;18.900;2023-02-17T19:25:49;98359.68;;;8.99;72.32
35758;BME280;21879;50.110;18.900;2023-02-17T19:36:15;98374.15;;;9.09;72.01
35758;BME280;21879;50.110;18.900;2023-02-17T19:46:40;98380.64;;;9.21;71.81
35758;BME280;21879;50.110;18.900;2023-02-17T19:57:04;98379.75;;;9.25;71.69
35758;BME280;21879;50.110;18.900;2023-02-17T20:07:29;98361.39;;;9.21;71.76
35758;BME280;21879;50.110;18.900;2023-02-17T20:17:54;98343.40;;;9.16;72.00
35758;BME280;21879;50.110;18.900;2023-02-17T20:28:19;98353.65;;;9.13;72.20
35758;BME280;21879;50.110;18.900;2023-02-17T20:38:44;98355.42;;;9.09;72.39
35758;BME280;21879;50.110;18.900;2023-02-17T20:49:09;98351.78;;;9.10;72.30
35758;BME280;21879;50.110;18.900;2023-02-17T20:59:34;98340.31;;;9.12;72.26
35758;BME280;21879;50.110;18.900;2023-02-17T21:09:59;98339.61;;;9.12;72.32
35758;BME280;21879;50.110;18.900;2023-02-17T21:20:24;98326.61;;;9.12;72.24
35758;BME280;21879;50.110;18.900;2023-02-17T21:30:49;98314.30;;;9.12;72.39
35758;BME280;21879;50.110;18.900;2023-02-17T21:41:16;98324.48;;;9.16;72.49
35758;BME280;21879;50.110;18.900;2023-02-17T21:51:41;98306.36;;;9.25;72.51
35758;BME280;21879;50.110;18.900;2023-02-17T22:02:05;98295.80;;;9.39;72.41
35758;BME280;21879;50.110;18.900;2023-02-17T22:12:29;98288.69;;;9.53;72.29
35758;BME280;21879;50.110;18.900;2023-02-17T22:22:54;98311.61;;;9.66;72.13
35758;BME280;21879;50.110;18.900;2023-02-17T22:33:18;98329.52;;;9.79;71.71
35758;BME280;21879;50.110;18.900;2023-02-17T22:43:43;98362.77;;;9.87;71.67
35758;BME280;21879;50.110;18.900;2023-02-17T22:54:08;98350.70;;;9.94;71.51
35758;BME280;21879;50.110;18.900;2023-02-17T23:04:32;98351.91;;;9.94;71.34
35758;BME280;21879;50.110;18.900;2023-02-17T23:14:57;98345.14;;;9.94;71.43
35758;BME280;21879;50.110;18.900;2023-02-17T23:25:21;98342.72;;;9.93;71.43
35758;BME280;21879;50.110;18.900;2023-02-17T23:35:45;98342.39;;;9.92;71.49
35758;BME280;21879;50.110;18.900;2023-02-17T23:46:11;98344.63;;;9.92;71.48
35758;BME280;21879;50.110;18.900;2023-02-17T23:56:36;98343.27;;;9.91;71.82
